^^

Meteo Aereoporti Centro-Italia

 

 
LIRZ - Perugia S.Egidio (208 m.)
Dati ricevuti: 25/06/2017 18:50
Poco nuvoloso
Poco nuvoloso
 Vento da SW
Vento: SW 24 km/h
TEMPERATURA: 30°C
Indice di Calore: 31°C
P.to di Rugiada: 18°C
Umidità: 49%
Pressione: 1012 hPa
Nuvole: Poco nuvoloso
Visibilità: 10 km
Dettagli Nuvole: Poco nuvoloso 1524 m
2017/06/25 16:50 LIRZ 251650Z 22013KT 9999 SCT050CB 30/18 Q1012
 
LIPY - Ancona Falconara (12 m.)
Dati ricevuti: 25/06/2017 19:01
Pioggia e temporali, Molto Nuvoloso
Pioggia e temporali, Molto Nuvoloso
 Vento da WSW
Vento: WSW 7 km/h
TEMPERATURA: 24°C
P.to di Rugiada: 21°C
Umidità: 83%
Pressione: 1011 hPa
Condizioni generali: Thunderstorm Rain
Nuvole: Molto nuvoloso
Visibilità: 10 km
Dettagli Nuvole: Poco nuvoloso 457 m
Molto nuvoloso 1219 m
2017/06/25 17:01 LIPY 251701Z 25004KT 220V320 9999 4000W TSRA SCT015CB BKN040 24/21 Q1011
 
LIPR - Rimini Miramare (12 m.)
Dati ricevuti: 25/06/2017 18:45
Qualche nuvola
Qualche nuvola
 Vento da ENE
Vento: ENE 6 km/h
TEMPERATURA: 27°C
Indice di Calore: 31°C
P.to di Rugiada: 25°C
Umidità: 89%
Pressione: 1010 hPa
Nuvole: Qualche nuvola
Visibilità: 10 km
Dettagli Nuvole: Qualche nuvola 1067 m
2017/06/25 16:45 LIPR 251645Z 07003KT 9999 FEW035TCU 27/25 Q1010
 
LIRF - Roma Fiumicino (2 m.)
Dati ricevuti: 25/06/2017 18:50
Sereno
Sereno
 Vento da SSW
Vento: SSW 9 km/h
TEMPERATURA: 28°C
Indice di Calore: 29°C
P.to di Rugiada: 19°C
Umidità: 58%
Pressione: 1013 hPa
Condizioni generali: Sereno
Visibilità: oltre 10 km
2017/06/25 16:50 LIRF 251650Z 21005KT 180V260 CAVOK 28/19 Q1013 NOSIG
 
LIRA - Roma Ciampino (129 m.)
Dati ricevuti: 25/06/2017 18:50
Sereno
Sereno
 Vento da SSW
Vento: SSW 11 km/h
TEMPERATURA: 28°C
Indice di Calore: 28°C
P.to di Rugiada: 17°C
Umidità: 51%
Pressione: 1013 hPa
Condizioni generali: Sereno
Visibilità: oltre 10 km
2017/06/25 16:50 LIRA 251650Z 21006KT 170V250 CAVOK 28/17 Q1013
 
LIRU - Roma Urbe (17 m.)
Dati ricevuti: 25/06/2017 18:50
Sereno
Sereno
 Vento da WSW
Vento: WSW 15 km/h
TEMPERATURA: 29°C
Indice di Calore: 29°C
P.to di Rugiada: 16°C
Umidità: 45%
Pressione: 1013 hPa
Condizioni generali: Sereno
Visibilità: oltre 10 km
2017/06/25 16:50 LIRU 251650Z 24008KT CAVOK 29/16 Q1013
 
LIVF - Frontone (570 m.)
Dati ricevuti: 16/06/2017 07:55
Dati non aggiornati
Sereno
Sereno
 Vento da calm
Vento: Calma
TEMPERATURA: 22°C
P.to di Rugiada: 18°C
Umidità: 78%
Pressione: 1017 hPa
Condizioni generali: Sereno
Visibilità: oltre 10 km
2017/06/16 05:55 LIVF 160555Z 00000KT CAVOK 22/18 Q1017 RMK SCT FEW080 MON LIB VAL N W MAR CLD VIS MIN 9999
 
LIRQ - Firenze Peretola (40 m.)
Dati ricevuti: 25/06/2017 18:50
Poco nuvoloso
Poco nuvoloso
 Vento da W
Vento: W 17 km/h
TEMPERATURA: 29°C
Indice di Calore: 29°C
P.to di Rugiada: 17°C
Umidità: 48%
Pressione: 1011 hPa
Nuvole: Poco nuvoloso
Visibilità: 10 km
Dettagli Nuvole: Poco nuvoloso 1219 m
2017/06/25 16:50 LIRQ 251650Z 28009KT 260V320 9999 SCT040 29/17 Q1011
 
LIBP - Pescara (10 m.)
Dati ricevuti: 25/06/2017 18:50
Sereno
Sereno
 Vento da NNE
Vento: NNE 11 km/h
TEMPERATURA: 30°C
Indice di Calore: 34°C
P.to di Rugiada: 23°C
Umidità: 66%
Pressione: 1009 hPa
Condizioni generali: Sereno
Visibilità: oltre 10 km
2017/06/25 16:50 LIBP 251650Z 03006KT CAVOK 30/23 Q1009
 
LIRV - Viterbo (300 m.)
Dati ricevuti: 25/06/2017 18:55
Sereno
Sereno
 Vento da SW
Vento: SW 20 km/h
TEMPERATURA: 26°C
P.to di Rugiada: 20°C
Umidità: 70%
Pressione: 1014 hPa
Condizioni generali: Sereno
Visibilità: oltre 10 km
2017/06/25 16:55 LIRV 251655Z 23011KT CAVOK 26/20 Q1014
 
LIQN - Rieti (389 m.)
Dati ricevuti: 25/06/2017 18:50
Sereno
Sereno
 Vento da SSW
Vento: SSW 19 km/h
TEMPERATURA: 28°C
Indice di Calore: 29°C
P.to di Rugiada: 19°C
Umidità: 58%
Pressione: 1013 hPa
Condizioni generali: Sereno
Visibilità: oltre 10 km
2017/06/25 16:50 LIQN 251650Z 20010KT CAVOK 28/19 Q1013
 
LIRG - Guidonia -RM- (88 m.)
Dati ricevuti: 23/06/2017 19:55
Dati non aggiornati
Sereno
Sereno
 Vento da WSW
Vento: WSW 13 km/h
TEMPERATURA: 29°C
Indice di Calore: 29°C
P.to di Rugiada: 15°C
Umidità: 43%
Pressione: 1017 hPa
Condizioni generali: Sereno
Visibilità: oltre 10 km
2017/06/23 17:55 LIRG 231755Z 25007KT CAVOK 29/15 Q1017 RMK SKC MON NE LIB NC VIS MIN 9999 BLU
 
LIRK - Terminillo -RI-(1874 m.)
Dati ricevuti: 25/06/2017 18:55

 Vento da W
Vento: W 15 km/h
2017/06/25 16:55 LIRK 251655Z AUTO 28008KT 210V300 //// ///// Q////
 
LIPK - Forlì (27 m.)
Dati ricevuti: 23/06/2017 17:50
Dati non aggiornati
Sereno
Sereno
 Vento da SSW
Vento: SSW 15 km/h
TEMPERATURA: 35°C
P.to di Rugiada: 19°C
Umidità: 39%
Pressione: 1013 hPa
Condizioni generali: Sereno
Visibilità: oltre 10 km
2017/06/23 15:50 LIPK 231550Z 21008KT CAVOK 35/19 Q1013
 
LIRS - Grosseto (5 m.)
Dati ricevuti: 25/06/2017 18:55
Qualche nuvola
Qualche nuvola
 Vento da SSW
Vento: SSW 24 km/h
TEMPERATURA: 28°C
Indice di Calore: 32°C
P.to di Rugiada: 24°C
Umidità: 79%
Pressione: 1012 hPa
Nuvole: Qualche nuvola
Visibilità: 10 km
Dettagli Nuvole: Qualche nuvola 610 m
2017/06/25 16:55 LIRS 251655Z 21013KT 9999 FEW020 28/24 Q1012
 
LIRP - Pisa S.Giusto (2 m.)
Dati ricevuti: 25/06/2017 18:45
Poco nuvoloso
Poco nuvoloso
 Vento da W
Vento: W 17 km/h
TEMPERATURA: 28°C
Indice di Calore: 29°C
P.to di Rugiada: 20°C
Umidità: 62%
Pressione: 1012 hPa
Nuvole: Poco nuvoloso
Visibilità: 10 km
Dettagli Nuvole: Poco nuvoloso 914 m
2017/06/25 16:45 LIRP 251645Z 28009KT 9999 SCT030 28/20 Q1012 NOSIG